Latest Coastal Weather Observations for Wilsons Promontory

IDT60701

Issued at 2:52 pm EDT Thursday 12 December 2019 (issued every 10 minutes, with the page automatically refreshed every 10 minutes)

About coastal observations | Map of coastal stations | Coastal observations for TAS | Marine services | Other Formats
Station Details ID: 085096 Name: WILSONS PROMONTORY LIGHTHOUSE Lat: -39.13 Lon: 146.42 Height: 95.0 m
Data from the previous 72 hours. | See also: Recent months at Wilsons Promontory
Date/Time
EDT
Wind Sea
Height
m
Swell Vis
km
Cloud Weather Temp
°C
Press
hPa
Rain since
9am
mm
Dir  Spd
kts
Gust
kts
Height
m
Period
s
Dir
12/02:30pm W 23 35 - - - - - - - 13.9 1015.5 0.0
12/02:12pm W 21 31 - - - - - - - 14.4 1015.6 0.0
12/02:00pm W 20 29 - - - - - - - 15.3 1015.5 0.0
12/01:41pm W 21 31 - - - - - - - 14.6 1015.7 0.0
12/01:30pm W 23 31 - - - - - - - 13.5 1015.6 0.0
12/01:00pm W 21 32 - - - - - - - 13.4 1015.5 0.0
12/12:30pm W 22 32 - - - - - - - 14.9 1015.6 0.0
12/12:00pm W 23 33 - - - - - - - 14.8 1015.6 0.0
12/11:30am W 19 28 - - - - - - - 14.8 1015.6 0.0
12/11:17am W 21 31 - - - - - - - 13.6 1015.4 0.0
12/11:00am W 26 32 - - - - - - - 13.7 1015.3 0.0
12/10:30am W 24 33 - - - - - - - 12.7 1015.2 0.0
12/10:14am W 26 39 - - - - - - - 12.7 1015.2 0.0
12/10:12am WSW 29 39 - - - - - - - 12.5 1015.0 0.0
12/10:00am WSW 41 46 - - - - - - - 12.2 1014.5 0.0
12/09:49am WSW 35 42 - - - - - - - 13.0 1014.6 0.0
12/09:33am W 21 41 - - - - - - - 13.0 1015.1 0.0
12/09:32am W 24 41 - - - - - - - 12.9 1015.0 0.0
12/09:30am WSW 35 41 - - - - - - - 12.7 1014.7 0.0
12/09:29am WSW 37 41 - - - - - - - 12.6 1014.6 0.0
12/09:00am W 26 36 - - - - - - - 12.7 1014.6 0.2
12/08:53am W 25 42 - - - - - - - 12.5 1014.6 0.2
12/08:44am WSW 38 42 - - - - - - - 12.6 1014.1 0.2
12/08:30am W 23 39 - - - - - - - 13.4 1014.2 0.2
12/08:00am W 22 37 - - - - - - - 13.2 1014.0 0.2
12/07:35am W 24 35 - - - - - - - 13.3 1014.3 0.2
12/07:30am W 23 32 - - - - - - - 13.2 1014.3 0.2
12/07:01am W 21 31 - - - - - - - 12.6 1014.4 0.2
12/07:00am W 22 31 - - - - - - - 12.5 1014.4 0.2
12/06:33am W 21 32 - - - - - - - 13.0 1014.3 0.0
12/06:30am W 20 29 - - - - - - - 13.1 1014.4 0.0
12/06:07am W 15 25 - - - - - - - 13.3 1014.3 0.0
12/06:00am W 13 21 - - - - - - - 13.4 1014.3 0.0
12/05:30am WNW 18 24 - - - - - - - 13.0 1014.2 0.0
12/05:20am WNW 15 25 - - - - - - - 12.8 1014.3 0.0
12/05:00am WNW 16 24 - - - - - - - 12.8 1014.1 0.0
12/04:30am WNW 17 22 - - - - - - - 13.0 1014.5 0.0
12/04:00am W 20 26 - - - - - - - 13.3 1014.6 0.0
12/03:30am W 16 23 - - - - - - - 13.4 1014.7 0.0
12/03:11am W 16 26 - - - - - - - 13.3 1015.1 0.0
12/03:00am W 18 24 - - - - - - - 13.2 1014.9 0.0
12/02:30am W 19 25 - - - - - - - 13.2 1015.4 0.0
12/02:00am W 18 23 - - - - - - - 13.4 1015.9 0.0
12/01:30am W 16 21 - - - - - - - 13.5 1015.9 0.0
12/01:00am W 16 21 - - - - - - - 13.7 1016.4 0.0
12/12:30am W 14 20 - - - - - - - 13.7 1016.6 0.0
12/12:00am W 12 18 - - - - - - - 13.7 1016.6 0.0
 
Date/Time
EDT
Wind Sea
Height
m
Swell Vis
km
Cloud Weather Temp
°C
Press
hPa
Rain since
9am
mm
Dir  Spd
kts
Gust
kts
Height
m
Period
s
Dir
11/11:30pm W 9 15 - - - - - - - 13.7 1016.9 0.0
11/11:00pm W 13 16 - - - - - - - 14.2 1017.0 0.0
11/10:30pm W 10 15 - - - - - - - 14.4 1017.3 0.0
11/10:00pm W 8 14 - - - - - - - 14.3 1017.4 0.0
11/09:30pm W 7 9 - - - - - - - 13.8 1017.4 0.0
11/09:00pm W 7 10 - - - - - - - 14.4 1017.0 0.0
11/08:30pm SW 6 7 - - - - - - - 14.9 1017.2 0.0
11/08:00pm WSW 5 8 - - - - - - - 15.6 1017.3 0.0
11/07:30pm N 4 5 - - - - - - - 15.6 1017.1 0.0
11/07:00pm NNE 5 6 - - - - - - - 15.9 1016.9 0.0
11/06:30pm NE 5 6 - - - - - - - 15.7 1016.8 0.0
11/06:00pm NE 5 7 - - - - - - - 15.7 1016.6 0.0
11/05:30pm NE 7 9 - - - - - - - 16.1 1016.6 0.0
11/05:00pm NE 7 9 - - - - - - - 15.8 1016.8 0.0
11/04:30pm NE 8 10 - - - - - - - 16.2 1016.8 0.0
11/04:00pm ENE 7 9 - - - - - - - 15.9 1017.1 0.0
11/03:30pm E 7 8 - - - - - - - 15.7 1017.5 0.0
11/03:00pm E 7 9 - - - - - - - 15.6 1017.5 0.0
11/02:30pm E 7 8 - - - - - - - 16.6 1017.7 0.0
11/02:00pm E 6 8 - - - - - - - 15.8 1017.8 0.0
11/01:30pm ENE 8 9 - - - - - - - 15.8 1017.9 0.0
11/01:00pm ENE 10 12 - - - - - - - 16.1 1018.1 0.0
11/12:30pm ENE 12 13 - - - - - - - 16.2 1018.0 0.0
11/12:00pm ENE 10 12 - - - - - - - 17.1 1018.0 0.0
11/11:30am ENE 10 13 - - - - - - - 16.2 1018.0 0.0
11/11:00am ESE 5 8 - - - - - - - 15.8 1017.9 0.0
11/10:30am S 4 6 - - - - - - - 16.1 1018.2 0.0
11/10:00am WSW 5 10 - - - - - - - 15.3 1018.3 0.0
11/09:30am NNW 3 8 - - - - - - - 16.1 1018.7 0.0
11/09:00am NE 7 9 - - - - - - - 16.0 1018.7 0.0
11/08:30am NE 7 10 - - - - - - - 14.7 1018.7 0.0
11/08:00am NE 6 8 - - - - - - - 15.2 1018.4 0.0
11/07:30am NNE 7 9 - - - - - - - 15.2 1018.1 0.0
11/07:00am NNE 6 8 - - - - - - - 13.8 1018.0 0.0
11/06:30am N 5 8 - - - - - - - 11.9 1017.9 0.0
11/06:00am NNE 7 9 - - - - - - - 11.1 1017.6 0.0
11/05:30am NNE 7 9 - - - - - - - 11.1 1017.5 0.0
11/05:00am NNE 6 8 - - - - - - - 11.2 1017.4 0.0
11/04:30am N 6 8 - - - - - - - 11.3 1017.4 0.0
11/04:00am N 6 8 - - - - - - - 11.5 1017.6 0.0
11/03:30am N 5 7 - - - - - - - 11.5 1017.7 0.0
11/03:00am N 4 5 - - - - - - - 11.5 1017.9 0.0
11/02:30am NNE 6 8 - - - - - - - 11.3 1018.3 0.0
11/02:00am CALM 0 0 - - - - - - - 11.7 1018.5 0.0
11/01:30am NNW 3 5 - - - - - - - 11.7 1018.7 0.0
11/01:00am WNW 5 9 - - - - - - - 12.1 1018.8 0.0
11/12:30am NW 8 13 - - - - - - - 12.1 1019.1 0.0
11/12:00am WNW 14 18 - - - - - - - 12.2 1019.0 0.0
 
Date/Time
EDT
Wind Sea
Height
m
Swell Vis
km
Cloud Weather Temp
°C
Press
hPa
Rain since
9am
mm
Dir  Spd
kts
Gust
kts
Height
m
Period
s
Dir
10/11:30pm W 9 17 - - - - - - - 12.5 1019.2 0.0
10/11:00pm W 10 15 - - - - - - - 12.4 1019.6 0.0
10/10:30pm W 13 17 - - - - - - - 12.4 1019.5 0.0
10/10:00pm W 14 19 - - - - - - - 12.5 1019.2 0.0
10/09:30pm W 11 16 - - - - - - - 12.5 1019.3 0.0
10/09:00pm W 11 17 - - - - - - - 12.6 1019.1 0.0
10/08:30pm W 11 17 - - - - - - - 12.8 1018.9 0.0
10/08:00pm W 13 19 - - - - - - - 13.1 1018.8 0.0
10/07:30pm W 16 26 - - - - - - - 13.6 1018.3 0.0
10/07:23pm W 16 26 - - - - - - - 13.5 1018.0 0.0
10/07:00pm W 20 26 - - - - - - - 13.6 1017.6 0.0
10/06:30pm W 22 28 - - - - - - - 13.7 1017.5 0.0
10/06:00pm W 20 27 - - - - - - - 14.0 1017.3 0.0
10/05:30pm W 23 31 - - - - - - - 14.1 1017.1 0.0
10/05:13pm W 26 36 - - - - - - - 14.3 1017.0 0.0
10/05:00pm W 28 36 - - - - - - - 14.3 1016.7 0.0
10/04:30pm W 29 36 - - - - - - - 13.9 1016.8 0.0
10/04:14pm W 25 35 - - - - - - - 14.3 1016.9 0.0
10/04:00pm W 27 34 - - - - - - - 14.2 1017.0 0.0
10/03:30pm W 27 34 - - - - - - - 14.6 1017.1 0.0
10/03:00pm W 26 35 - - - - - - - 14.7 1017.2 0.0
10/02:52pm W 25 35 - - - - - - - 14.4 1017.4 0.0
10/02:30pm W 26 33 - - - - - - - 14.0 1017.4 0.0
10/02:00pm W 28 36 - - - - - - - 14.2 1017.1 0.0
10/01:30pm W 27 35 - - - - - - - 14.4 1017.1 0.0
10/01:00pm W 29 34 - - - - - - - 14.4 1017.0 0.0
10/12:30pm W 28 35 - - - - - - - 13.9 1017.2 0.0
10/12:00pm W 27 34 - - - - - - - 14.2 1017.1 0.0
10/11:33am W 26 36 - - - - - - - 13.4 1017.2 0.0
10/11:30am W 25 31 - - - - - - - 13.6 1017.2 0.0
10/11:02am W 22 32 - - - - - - - 13.7 1017.1 0.0
10/11:00am W 23 31 - - - - - - - 13.5 1017.1 0.0
10/10:30am W 24 31 - - - - - - - 13.0 1016.9 0.0
10/10:00am W 23 34 - - - - - - - 12.5 1016.9 0.0
10/09:30am W 27 35 - - - - - - - 12.6 1016.0 0.0
10/09:07am W 28 38 - - - - - - - 12.7 1015.8 0.0
10/09:00am W 30 37 - - - - - - - 12.7 1015.6 0.0
10/08:48am W 25 35 - - - - - - - 12.7 1015.6 0.0
10/08:30am W 24 33 - - - - - - - 12.8 1015.7 0.0
10/08:00am W 24 37 - - - - - - - 12.7 1015.2 0.0
10/07:32am W 24 34 - - - - - - - 12.3 1014.8 0.0
10/07:30am W 24 33 - - - - - - - 12.4 1014.8 0.0
10/07:00am W 23 33 - - - - - - - 12.7 1014.4 0.0
10/06:58am W 22 33 - - - - - - - 12.9 1014.4 0.0
10/06:52am WSW 20 33 - - - - - - - 13.0 1014.3 0.0
10/06:30am W 30 37 - - - - - - - 12.9 1013.9 0.0
10/06:00am W 24 34 - - - - - - - 12.9 1014.1 0.0
10/05:33am W 23 33 - - - - - - - 12.9 1014.1 0.0
10/05:30am WSW 26 35 - - - - - - - 12.8 1014.1 0.0
10/05:04am WSW 29 39 - - - - - - - 12.7 1013.0 0.0
10/05:00am WSW 29 38 - - - - - - - 12.7 1013.1 0.0
10/04:32am WSW 26 37 - - - - - - - 13.2 1012.8 0.0
10/04:30am W 25 34 - - - - - - - 13.2 1012.9 0.0
10/04:08am W 21 31 - - - - - - - 13.4 1012.7 0.0
10/04:00am W 21 28 - - - - - - - 13.4 1012.7 0.0
10/03:30am W 23 33 - - - - - - - 13.6 1011.6 0.0
10/03:00am W 27 44 - - - - - - - 13.8 1011.8 0.0
10/02:30am W 29 45 - - - - - - - 13.7 1012.6 0.0
10/02:00am W 33 48 - - - - - - - 13.5 1013.3 0.0
10/01:38am W 32 42 - - - - - - - 13.5 1012.9 0.0
10/01:34am W 33 41 - - - - - - - 13.5 1012.6 0.0
10/01:30am WSW 20 40 - - - - - - - 13.5 1012.7 0.0
10/01:26am WNW 23 40 - - - - - - - 13.5 1013.0 0.0
10/01:17am W 22 37 - - - - - - - 13.6 1013.4 0.0
10/01:09am WNW 17 37 - - - - - - - 13.6 1013.1 0.0
10/01:08am WNW 14 37 - - - - - - - 13.6 1013.2 0.0
10/01:00am W 27 37 - - - - - - - 13.6 1013.1 0.0
10/12:33am W 31 41 - - - - - - - 13.6 1012.1 0.0
10/12:30am W 32 41 - - - - - - - 13.6 1012.3 0.0
10/12:03am W 37 49 - - - - - - - 14.1 1012.6 0.0
10/12:00am W 24 41 - - - - - - - 14.4 1012.8 0.0
 
Date/Time
EDT
Wind Sea
Height
m
Swell Vis
km
Cloud Weather Temp
°C
Press
hPa
Rain since
9am
mm
Dir  Spd
kts
Gust
kts
Height
m
Period
s
Dir
09/11:30pm WNW 31 46 - - - - - - - 15.3 1012.6 0.0
09/11:00pm W 26 37 - - - - - - - 17.6 1012.1 0.0
09/10:38pm W 27 37 - - - - - - - 20.5 1012.8 0.0
09/10:30pm W 27 33 - - - - - - - 20.1 1012.8 0.0
09/10:14pm W 23 33 - - - - - - - 18.9 1012.5 0.0
09/10:00pm W 29 37 - - - - - - - 18.5 1012.2 0.0
09/09:46pm W 22 32 - - - - - - - 20.0 1012.0 0.0
09/09:30pm W 18 25 - - - - - - - 23.2 1012.6 0.0
09/09:00pm W 11 18 - - - - - - - 23.3 1012.4 0.0
09/08:35pm WSW 17 35 - - - - - - - 22.9 1011.2 0.0
09/08:30pm N 6 8 - - - - - - - 24.9 1011.5 0.0
09/08:00pm WSW 6 10 - - - - - - - 25.7 1011.1 0.0
09/07:30pm W 13 19 - - - - - - - 26.1 1010.8 0.0
09/07:00pm NNE 19 22 - - - - - - - 23.4 1009.9 0.0
09/06:30pm NNE 17 21 - - - - - - - 22.7 1009.9 0.0
09/06:00pm NNE 15 19 - - - - - - - 22.6 1009.9 0.0
09/05:30pm NNE 14 16 - - - - - - - 20.6 1010.3 0.0
09/05:00pm NNE 17 18 - - - - - - - 19.1 1010.6 0.0
09/04:30pm NNE 15 17 - - - - - - - 19.4 1011.0 0.0
09/04:00pm NNE 14 16 - - - - - - - 18.4 1011.3 0.0
09/03:30pm NNE 13 15 - - - - - - - 19.1 1011.6 0.0
09/03:00pm NNE 11 15 - - - - - - - 19.6 1011.9 0.0

Other formats

Comma delimited format used in spreadsheet applications
http://www.bom.gov.au/fwo/IDT60701/IDT60701.94893.axf

JavaScript Object Notation format (JSON) in row-major order
http://www.bom.gov.au/fwo/IDT60701/IDT60701.94893.json

Data quality

Most of these data are generated automatically and are frequently updated. Quality checks on data are not normally performed. It is possible for incorrect values to appear. Refer to information at About Latest Weather Observations and please check the disclaimer before using these data.